createdAt,value
2022-11-05T00:00:25.803Z,1009.40
2022-11-05T00:00:56.513Z,1009.41
2022-11-05T00:01:27.078Z,1009.43
2022-11-05T00:01:57.716Z,1009.42
2022-11-05T00:02:28.310Z,1009.43
2022-11-05T00:02:58.839Z,1009.43
2022-11-05T00:03:29.354Z,1009.41
2022-11-05T00:04:00.267Z,1009.40
2022-11-05T00:04:31.170Z,1009.40
2022-11-05T00:05:01.399Z,1009.42
2022-11-05T00:05:31.822Z,1009.44
2022-11-05T00:06:02.754Z,1009.44
2022-11-05T00:06:33.919Z,1009.45
2022-11-05T00:07:04.353Z,1009.46
2022-11-05T00:07:35.246Z,1009.46
2022-11-05T00:08:06.234Z,1009.45
2022-11-05T00:08:36.750Z,1009.47
2022-11-05T00:09:07.287Z,1009.48
2022-11-05T00:09:37.988Z,1009.48
2022-11-05T00:10:08.506Z,1009.48
2022-11-05T00:10:38.993Z,1009.49
2022-11-05T00:11:13.873Z,1009.50
2022-11-05T00:11:41.901Z,1009.51
2022-11-05T00:12:11.575Z,1009.51
2022-11-05T00:12:42.101Z,1009.50
2022-11-05T00:13:12.878Z,1009.51
2022-11-05T00:13:43.057Z,1009.50
2022-11-05T00:14:14.073Z,1009.50
2022-11-05T00:14:44.588Z,1009.51
2022-11-05T00:15:15.705Z,1009.52
2022-11-05T00:15:46.213Z,1009.54
2022-11-05T00:16:17.154Z,1009.52
2022-11-05T00:16:48.147Z,1009.54
2022-11-05T00:17:19.212Z,1009.55
2022-11-05T00:17:49.756Z,1009.55
2022-11-05T00:18:20.399Z,1009.56
2022-11-05T00:18:50.924Z,1009.56
2022-11-05T00:19:21.364Z,1009.57
2022-11-05T00:19:51.904Z,1009.57
2022-11-05T00:20:22.818Z,1009.57
2022-11-05T00:20:53.764Z,1009.58
2022-11-05T00:21:24.952Z,1009.58
2022-11-05T00:21:55.493Z,1009.60
2022-11-05T00:22:25.943Z,1009.60
2022-11-05T00:22:56.891Z,1009.61
2022-11-05T00:23:27.848Z,1009.60
2022-11-05T00:23:58.879Z,1009.60
2022-11-05T00:24:29.527Z,1009.60
2022-11-05T00:25:00.025Z,1009.57
2022-11-05T00:25:30.577Z,1009.57
2022-11-05T00:26:01.038Z,1009.59
2022-11-05T00:26:31.988Z,1009.60
2022-11-05T00:27:03.001Z,1009.58
2022-11-05T00:27:33.633Z,1009.58
2022-11-05T00:28:04.142Z,1009.57
2022-11-05T00:28:34.684Z,1009.58
2022-11-05T00:29:05.143Z,1009.57
2022-11-05T00:29:36.094Z,1009.59
2022-11-05T00:30:07.081Z,1009.60
2022-11-05T00:30:37.716Z,1009.61
2022-11-05T00:31:08.227Z,1009.59
2022-11-05T00:31:38.744Z,1009.60
2022-11-05T00:32:09.268Z,1009.61
2022-11-05T00:32:39.706Z,1009.62
2022-11-05T00:33:11.098Z,1009.62
2022-11-05T00:33:41.537Z,1009.64
2022-11-05T00:34:12.067Z,1009.64
2022-11-05T00:34:42.493Z,1009.67
2022-11-05T00:35:13.497Z,1009.66
2022-11-05T00:35:43.974Z,1009.68
2022-11-05T00:36:14.911Z,1009.70
2022-11-05T00:36:46.078Z,1009.71
2022-11-05T00:37:16.625Z,1009.74
2022-11-05T00:37:50.027Z,1009.72
2022-11-05T00:38:17.586Z,1009.74
2022-11-05T00:38:48.609Z,1009.75
2022-11-05T00:39:19.112Z,1009.78
2022-11-05T00:39:49.824Z,1009.76
2022-11-05T00:40:20.347Z,1009.77
2022-11-05T00:40:51.309Z,1009.77
2022-11-05T00:41:22.245Z,1009.77
2022-11-05T00:41:53.192Z,1009.79
2022-11-05T00:42:24.352Z,1009.79
2022-11-05T00:42:55.054Z,1009.79
2022-11-05T00:43:25.758Z,1009.81
2022-11-05T00:43:56.253Z,1009.81
2022-11-05T00:45:48.566Z,1009.81
2022-11-05T00:46:19.778Z,1009.84
2022-11-05T00:46:50.308Z,1009.83
2022-11-05T00:47:20.801Z,1009.85
2022-11-05T00:47:51.742Z,1009.85
2022-11-05T00:48:22.888Z,1009.85
2022-11-05T00:48:53.401Z,1009.86
2022-11-05T00:49:24.119Z,1009.87
2022-11-05T00:49:54.695Z,1009.87
2022-11-05T00:50:25.470Z,1009.87
2022-11-05T00:50:55.975Z,1009.89
2022-11-05T00:51:26.929Z,1009.91
2022-11-05T00:51:57.906Z,1009.90
2022-11-05T00:52:29.065Z,1009.92
2022-11-05T00:52:59.778Z,1009.92
2022-11-05T00:53:30.337Z,1009.93
2022-11-05T00:54:01.351Z,1009.95
2022-11-05T00:54:31.761Z,1009.97
2022-11-05T00:55:02.797Z,1009.98
2022-11-05T00:55:33.700Z,1009.99
2022-11-05T00:56:04.242Z,1010.02
2022-11-05T00:56:34.685Z,1010.02
2022-11-05T00:57:05.686Z,1010.02
2022-11-05T00:57:36.217Z,1010.04
2022-11-05T00:58:07.147Z,1010.04
2022-11-05T00:58:38.288Z,1010.04
2022-11-05T00:59:08.832Z,1010.04
2022-11-05T00:59:39.390Z,1010.04
2022-11-05T01:00:09.819Z,1010.05
2022-11-05T01:00:40.829Z,1010.05
2022-11-05T01:01:11.373Z,1010.04
2022-11-05T01:01:42.386Z,1010.07
2022-11-05T01:02:12.775Z,1010.08
2022-11-05T01:02:43.660Z,1010.08
2022-11-05T01:03:14.661Z,1010.07
2022-11-05T01:03:48.907Z,1010.09
2022-11-05T01:04:16.132Z,1010.08
2022-11-05T01:04:46.670Z,1010.09
2022-11-05T01:05:17.108Z,1010.08
2022-11-05T01:05:48.120Z,1010.09
2022-11-05T01:06:19.041Z,1010.09
2022-11-05T01:06:49.985Z,1010.10
2022-11-05T01:07:21.179Z,1010.09
2022-11-05T01:07:51.715Z,1010.11
2022-11-05T01:08:22.155Z,1010.09
2022-11-05T01:08:53.098Z,1010.09
2022-11-05T01:09:24.103Z,1010.09
2022-11-05T01:09:54.533Z,1010.10
2022-11-05T01:10:25.662Z,1010.09
2022-11-05T01:10:56.223Z,1010.09
2022-11-05T01:11:26.853Z,1010.11
2022-11-05T01:11:57.356Z,1010.09
2022-11-05T01:12:28.254Z,1010.08
2022-11-05T01:12:59.265Z,1010.10
2022-11-05T01:13:29.983Z,1010.11
2022-11-05T01:14:00.496Z,1010.10
2022-11-05T01:14:31.436Z,1010.11
2022-11-05T01:15:02.375Z,1010.09
2022-11-05T01:15:33.383Z,1010.10
2022-11-05T01:16:03.825Z,1010.11
2022-11-05T01:16:34.541Z,1010.12
2022-11-05T01:17:05.033Z,1010.10
2022-11-05T01:17:35.458Z,1010.11
2022-11-05T01:18:06.422Z,1010.13
2022-11-05T01:18:37.431Z,1010.11
2022-11-05T01:19:08.365Z,1010.12
2022-11-05T01:19:39.587Z,1010.13
2022-11-05T01:20:10.211Z,1010.13
2022-11-05T01:20:40.739Z,1010.15
2022-11-05T01:21:11.245Z,1010.15
2022-11-05T01:21:41.700Z,1010.18
2022-11-05T01:22:12.639Z,1010.19
2022-11-05T01:22:43.767Z,1010.20
2022-11-05T01:23:14.366Z,1010.21
2022-11-05T01:23:44.829Z,1010.22
2022-11-05T01:24:15.838Z,1010.22
2022-11-05T01:24:46.769Z,1010.21
2022-11-05T01:25:17.710Z,1010.22
2022-11-05T01:25:48.843Z,1010.22
2022-11-05T01:26:19.356Z,1010.22
2022-11-05T01:26:49.883Z,1010.22
2022-11-05T01:27:20.335Z,1010.25
2022-11-05T01:27:51.379Z,1010.23
2022-11-05T01:28:21.975Z,1010.24
2022-11-05T01:28:52.851Z,1010.24
2022-11-05T01:29:23.435Z,1010.26
2022-11-05T01:29:54.339Z,1010.25
2022-11-05T01:30:25.541Z,1010.26
2022-11-05T01:30:56.052Z,1010.28
2022-11-05T01:31:26.495Z,1010.28
2022-11-05T01:31:57.623Z,1010.29
2022-11-05T01:32:28.124Z,1010.30
2022-11-05T01:32:58.637Z,1010.31
2022-11-05T01:33:29.113Z,1010.33
2022-11-05T01:34:00.051Z,1010.34
2022-11-05T01:34:31.106Z,1010.32
2022-11-05T01:35:01.725Z,1010.35
2022-11-05T01:35:32.248Z,1010.36
2022-11-05T01:36:02.686Z,1010.36
2022-11-05T01:36:33.638Z,1010.37
2022-11-05T01:37:04.594Z,1010.39
2022-11-05T01:37:35.514Z,1010.40
2022-11-05T01:38:06.648Z,1010.40
2022-11-05T01:38:37.201Z,1010.40
2022-11-05T01:39:07.714Z,1010.41
2022-11-05T01:39:38.127Z,1010.41
2022-11-05T01:40:09.184Z,1010.41
2022-11-05T01:40:39.605Z,1010.42
2022-11-05T01:41:10.711Z,1010.42
2022-11-05T01:41:41.211Z,1010.43
2022-11-05T01:42:12.146Z,1010.44
2022-11-05T01:42:43.092Z,1010.43
2022-11-05T01:43:14.015Z,1010.43
2022-11-05T01:43:45.011Z,1010.42
2022-11-05T01:44:16.198Z,1010.42
2022-11-05T01:44:46.711Z,1010.42
2022-11-05T01:45:17.647Z,1010.40
2022-11-05T01:45:48.601Z,1010.43
2022-11-05T01:46:19.541Z,1010.42
2022-11-05T01:46:50.488Z,1010.42
2022-11-05T01:47:21.720Z,1010.42
2022-11-05T01:47:52.279Z,1010.42
2022-11-05T01:48:22.744Z,1010.42
2022-11-05T01:48:57.268Z,1010.43
2022-11-05T01:49:25.781Z,1010.45
2022-11-05T01:49:55.465Z,1010.44
2022-11-05T01:50:25.969Z,1010.44
2022-11-05T01:50:56.458Z,1010.44
2022-11-05T01:51:27.394Z,1010.43
2022-11-05T01:51:58.398Z,1010.43
2022-11-05T01:52:28.853Z,1010.42
2022-11-05T01:52:59.998Z,1010.43
2022-11-05T01:53:30.512Z,1010.44
2022-11-05T01:54:01.033Z,1010.44
2022-11-05T01:54:31.463Z,1010.44
2022-11-05T01:55:02.420Z,1010.45
2022-11-05T01:55:33.436Z,1010.44
2022-11-05T01:56:04.079Z,1010.44
2022-11-05T01:56:34.597Z,1010.45
2022-11-05T01:57:05.538Z,1010.47
2022-11-05T01:57:36.520Z,1010.46
2022-11-05T01:58:07.483Z,1010.45
2022-11-05T01:58:38.496Z,1010.45
2022-11-05T01:59:09.996Z,1010.46
2022-11-05T01:59:39.960Z,1010.47
2022-11-05T02:00:11.007Z,1010.47
2022-11-05T02:00:41.472Z,1010.48
2022-11-05T02:01:12.437Z,1010.48
2022-11-05T02:01:43.771Z,1010.48
2022-11-05T02:02:14.610Z,1010.48
2022-11-05T02:02:45.487Z,1010.49
2022-11-05T02:03:16.198Z,1010.49
2022-11-05T02:03:46.687Z,1010.50
2022-11-05T02:04:17.279Z,1010.50
2022-11-05T02:04:47.916Z,1010.51
2022-11-05T02:05:18.454Z,1010.51
2022-11-05T02:05:48.912Z,1010.51
2022-11-05T02:06:19.882Z,1010.50
2022-11-05T02:06:50.826Z,1010.52
2022-11-05T02:07:21.830Z,1010.51
2022-11-05T02:07:52.467Z,1010.51
2022-11-05T02:08:22.975Z,1010.52
2022-11-05T02:08:53.484Z,1010.51
2022-11-05T02:09:24.451Z,1010.51
2022-11-05T02:09:55.492Z,1010.51
2022-11-05T02:10:25.973Z,1010.51
2022-11-05T02:10:56.698Z,1010.50
2022-11-05T02:11:27.212Z,1010.49
2022-11-05T02:11:58.137Z,1010.50
2022-11-05T02:12:29.127Z,1010.50
2022-11-05T02:13:00.122Z,1010.50
2022-11-05T02:13:31.046Z,1010.49
2022-11-05T02:14:02.175Z,1010.51
2022-11-05T02:14:32.995Z,1010.49
2022-11-05T02:15:03.518Z,1010.51
2022-11-05T02:15:33.979Z,1010.50
2022-11-05T02:16:04.926Z,1010.49
2022-11-05T02:16:35.928Z,1010.49
2022-11-05T02:17:07.073Z,1010.49
2022-11-05T02:17:37.587Z,1010.49
2022-11-05T02:18:08.534Z,1010.49
2022-11-05T02:18:39.539Z,1010.49
2022-11-05T02:19:10.103Z,1010.49
2022-11-05T02:19:40.602Z,1010.51
2022-11-05T02:20:11.742Z,1010.50
2022-11-05T02:20:42.263Z,1010.50
2022-11-05T02:21:12.716Z,1010.49
2022-11-05T02:21:43.817Z,1010.49
2022-11-05T02:22:14.260Z,1010.51
2022-11-05T02:22:45.212Z,1010.48
2022-11-05T02:23:16.332Z,1010.49
2022-11-05T02:23:46.839Z,1010.48
2022-11-05T02:24:17.293Z,1010.47
2022-11-05T02:24:48.264Z,1010.48
2022-11-05T02:25:19.201Z,1010.49
2022-11-05T02:25:50.134Z,1010.49
2022-11-05T02:26:21.253Z,1010.49
2022-11-05T02:26:51.791Z,1010.47
2022-11-05T02:27:22.229Z,1010.49
2022-11-05T02:27:53.210Z,1010.48
2022-11-05T02:28:24.156Z,1010.48
2022-11-05T02:28:55.097Z,1010.48
2022-11-05T02:29:26.302Z,1010.48
2022-11-05T02:29:56.815Z,1010.48
2022-11-05T02:30:27.736Z,1010.48
2022-11-05T02:30:58.678Z,1010.48
2022-11-05T02:31:29.605Z,1010.46
2022-11-05T02:32:00.617Z,1010.47
2022-11-05T02:32:31.280Z,1010.48
2022-11-05T02:33:01.803Z,1010.48
2022-11-05T02:33:32.322Z,1010.47
2022-11-05T02:34:03.275Z,1010.48
2022-11-05T02:34:34.212Z,1010.49
2022-11-05T02:35:05.282Z,1010.49
2022-11-05T02:35:35.919Z,1010.49
2022-11-05T02:36:06.432Z,1010.50
2022-11-05T02:36:37.367Z,1010.51
2022-11-05T02:37:08.662Z,1010.51
2022-11-05T02:37:39.382Z,1010.51
2022-11-05T02:38:09.904Z,1010.50
2022-11-05T02:38:41.038Z,1010.51
2022-11-05T02:39:11.546Z,1010.49
2022-11-05T02:39:42.046Z,1010.50
2022-11-05T02:40:12.567Z,1010.48
2022-11-05T02:40:43.075Z,1010.50
2022-11-05T02:41:14.055Z,1010.49
2022-11-05T02:41:45.193Z,1010.50
2022-11-05T02:42:15.715Z,1010.51
2022-11-05T02:42:46.215Z,1010.52
2022-11-05T02:43:17.191Z,1010.51
2022-11-05T02:43:48.186Z,1010.52
2022-11-05T02:44:19.151Z,1010.51
2022-11-05T02:44:50.284Z,1010.51
2022-11-05T02:45:20.819Z,1010.51
2022-11-05T02:45:51.464Z,1010.50
2022-11-05T02:46:21.990Z,1010.49
2022-11-05T02:46:52.452Z,1010.49
2022-11-05T02:47:23.385Z,1010.51
2022-11-05T02:47:54.501Z,1010.50
2022-11-05T02:48:25.040Z,1010.49
2022-11-05T02:48:55.560Z,1010.49
2022-11-05T02:49:26.091Z,1010.52
2022-11-05T02:49:56.517Z,1010.53
2022-11-05T02:50:27.466Z,1010.53
2022-11-05T02:50:58.602Z,1010.53
2022-11-05T02:51:29.093Z,1010.55
2022-11-05T02:51:59.612Z,1010.54
2022-11-05T02:52:30.149Z,1010.56
2022-11-05T02:53:00.604Z,1010.58
2022-11-05T02:53:31.551Z,1010.59
2022-11-05T02:54:02.705Z,1010.60
2022-11-05T02:54:33.222Z,1010.60
2022-11-05T02:55:03.755Z,1010.59
2022-11-05T02:55:34.246Z,1010.59
2022-11-05T02:56:05.193Z,1010.60
2022-11-05T02:56:36.207Z,1010.60
2022-11-05T02:57:07.369Z,1010.63
2022-11-05T02:57:37.909Z,1010.66
2022-11-05T02:58:08.416Z,1010.66
2022-11-05T02:58:38.861Z,1010.65
2022-11-05T02:59:09.819Z,1010.65
2022-11-05T02:59:40.762Z,1010.67
2022-11-05T03:00:11.903Z,1010.67
2022-11-05T03:00:42.435Z,1010.66
2022-11-05T03:01:12.868Z,1010.66
2022-11-05T03:01:43.979Z,1010.67
2022-11-05T03:02:14.819Z,1010.67
2022-11-05T03:02:45.626Z,1010.68
2022-11-05T03:03:16.499Z,1010.68
2022-11-05T03:03:47.007Z,1010.67
2022-11-05T03:04:17.523Z,1010.66
2022-11-05T03:04:48.430Z,1010.67
2022-11-05T03:05:19.372Z,1010.67
2022-11-05T03:05:50.376Z,1010.70
2022-11-05T03:06:21.012Z,1010.68
2022-11-05T03:06:51.542Z,1010.68
2022-11-05T03:07:22.031Z,1010.67
2022-11-05T03:07:53.015Z,1010.70
2022-11-05T03:08:23.968Z,1010.70
2022-11-05T03:08:54.738Z,1010.68
2022-11-05T03:09:25.872Z,1010.67
2022-11-05T03:09:56.390Z,1010.67
2022-11-05T03:10:26.938Z,1010.68
2022-11-05T03:10:57.472Z,1010.66
2022-11-05T03:11:27.930Z,1010.63
2022-11-05T03:11:58.898Z,1010.63
2022-11-05T03:12:30.033Z,1010.64
2022-11-05T03:13:00.569Z,1010.62
2022-11-05T03:13:31.086Z,1010.63
2022-11-05T03:14:02.057Z,1010.65
2022-11-05T03:14:33.055Z,1010.68
2022-11-05T03:15:03.988Z,1010.68
2022-11-05T03:15:35.493Z,1010.67
2022-11-05T03:16:06.019Z,1010.66
2022-11-05T03:16:36.531Z,1010.68
2022-11-05T03:17:07.476Z,1010.67
2022-11-05T03:17:38.416Z,1010.66
2022-11-05T03:18:09.356Z,1010.66
2022-11-05T03:18:40.557Z,1010.67
2022-11-05T03:19:11.116Z,1010.69
2022-11-05T03:19:41.590Z,1010.71
2022-11-05T03:20:12.593Z,1010.70
2022-11-05T03:20:43.573Z,1010.71
2022-11-05T03:21:14.104Z,1010.70
2022-11-05T03:21:44.758Z,1010.70
2022-11-05T03:22:15.260Z,1010.69
2022-11-05T03:22:46.240Z,1010.69
2022-11-05T03:23:16.818Z,1010.68
2022-11-05T03:23:47.308Z,1010.68
2022-11-05T03:24:17.849Z,1010.69
2022-11-05T03:24:48.471Z,1010.70
2022-11-05T03:25:19.033Z,1010.71
2022-11-05T03:25:49.520Z,1010.72
2022-11-05T03:26:20.539Z,1010.71
2022-11-05T03:26:51.054Z,1010.72
2022-11-05T03:27:21.525Z,1010.74
2022-11-05T03:27:52.672Z,1010.75
2022-11-05T03:28:23.154Z,1010.75
2022-11-05T03:28:54.110Z,1010.76
2022-11-05T03:29:25.152Z,1010.78
2022-11-05T03:29:55.609Z,1010.80
2022-11-05T03:30:26.552Z,1010.79
2022-11-05T03:30:57.678Z,1010.82
2022-11-05T03:31:28.211Z,1010.82
2022-11-05T03:31:58.648Z,1010.83
2022-11-05T03:32:29.590Z,1010.83
2022-11-05T03:33:00.551Z,1010.86
2022-11-05T03:33:31.474Z,1010.87
2022-11-05T03:34:02.697Z,1010.87
2022-11-05T03:34:33.233Z,1010.87
2022-11-05T03:35:03.680Z,1010.89
2022-11-05T03:35:34.679Z,1010.91
2022-11-05T03:36:05.630Z,1010.90
2022-11-05T03:36:36.664Z,1010.88
2022-11-05T03:37:07.331Z,1010.87
2022-11-05T03:37:37.867Z,1010.88
2022-11-05T03:38:08.421Z,1010.88
2022-11-05T03:38:38.897Z,1010.89
2022-11-05T03:39:09.431Z,1010.89
2022-11-05T03:39:39.888Z,1010.89
2022-11-05T03:40:11.008Z,1010.91
2022-11-05T03:40:41.528Z,1010.91
2022-11-05T03:41:12.026Z,1010.91
2022-11-05T03:41:42.545Z,1010.91
2022-11-05T03:42:13.027Z,1010.90
2022-11-05T03:42:43.941Z,1010.90
2022-11-05T03:43:15.148Z,1010.88
2022-11-05T03:43:45.691Z,1010.89
2022-11-05T03:44:16.106Z,1010.89
2022-11-05T03:44:47.247Z,1010.87
2022-11-05T03:45:17.738Z,1010.89
2022-11-05T03:45:48.254Z,1010.88
2022-11-05T03:46:18.862Z,1010.89
2022-11-05T03:46:49.453Z,1010.92
2022-11-05T03:47:19.981Z,1010.91
2022-11-05T03:47:50.422Z,1010.92
2022-11-05T03:48:21.506Z,1010.93
2022-11-05T03:48:52.064Z,1010.93
2022-11-05T03:49:23.008Z,1010.93
2022-11-05T03:49:53.553Z,1010.93
2022-11-05T03:50:24.228Z,1010.95
2022-11-05T03:50:54.775Z,1010.97
2022-11-05T03:51:25.222Z,1010.98
2022-11-05T03:51:56.288Z,1010.98
2022-11-05T03:52:26.914Z,1011.02
2022-11-05T03:52:57.451Z,1011.02
2022-11-05T03:53:27.966Z,1011.04
2022-11-05T03:53:58.442Z,1011.05
2022-11-05T03:54:29.388Z,1011.07
2022-11-05T03:55:02.187Z,1011.07
2022-11-05T03:55:31.379Z,1011.09
2022-11-05T03:56:01.948Z,1011.11
2022-11-05T03:56:32.397Z,1011.13
2022-11-05T03:57:03.353Z,1011.13
2022-11-05T03:57:34.417Z,1011.15
2022-11-05T03:58:04.926Z,1011.18
2022-11-05T03:58:36.103Z,1011.20
2022-11-05T03:59:06.648Z,1011.22
2022-11-05T03:59:37.094Z,1011.23
2022-11-05T04:00:08.101Z,1011.25
2022-11-05T04:00:38.595Z,1011.25
2022-11-05T04:01:09.595Z,1011.27
2022-11-05T04:01:40.442Z,1011.29
2022-11-05T04:02:10.881Z,1011.32
2022-11-05T04:02:41.722Z,1011.32
2022-11-05T04:03:12.983Z,1011.35
2022-11-05T04:03:43.214Z,1011.37
2022-11-05T04:04:13.668Z,1011.38
2022-11-05T04:04:44.783Z,1011.38
2022-11-05T04:05:15.313Z,1011.39
2022-11-05T04:05:45.850Z,1011.40
2022-11-05T04:06:16.295Z,1011.40
2022-11-05T04:06:47.258Z,1011.41
2022-11-05T04:07:18.220Z,1011.42
2022-11-05T04:07:49.411Z,1011.44
2022-11-05T04:08:19.917Z,1011.42
2022-11-05T04:08:50.398Z,1011.43
2022-11-05T04:09:20.934Z,1011.44
2022-11-05T04:09:51.457Z,1011.43
2022-11-05T04:10:21.871Z,1011.45
2022-11-05T04:10:53.080Z,1011.46
2022-11-05T04:11:23.598Z,1011.47
2022-11-05T04:11:54.116Z,1011.46
2022-11-05T04:12:25.075Z,1011.46
2022-11-05T04:12:56.090Z,1011.46
2022-11-05T04:13:26.663Z,1011.46
2022-11-05T04:13:57.420Z,1011.47
2022-11-05T04:14:27.932Z,1011.47
2022-11-05T04:14:58.917Z,1011.47
2022-11-05T04:15:29.888Z,1011.50
2022-11-05T04:16:00.815Z,1011.48
2022-11-05T04:16:31.787Z,1011.48
2022-11-05T04:17:02.900Z,1011.49
2022-11-05T04:17:33.445Z,1011.49
2022-11-05T04:18:03.921Z,1011.52
2022-11-05T04:18:34.874Z,1011.52
2022-11-05T04:19:05.892Z,1011.53
2022-11-05T04:19:36.326Z,1011.53
2022-11-05T04:20:07.538Z,1011.54
2022-11-05T04:20:38.047Z,1011.54
2022-11-05T04:21:08.995Z,1011.55
2022-11-05T04:21:39.946Z,1011.55
2022-11-05T04:22:10.874Z,1011.54
2022-11-05T04:22:41.904Z,1011.52
2022-11-05T04:23:12.775Z,1011.55
2022-11-05T04:23:43.004Z,1011.53
2022-11-05T04:24:13.953Z,1011.55
2022-11-05T04:24:44.929Z,1011.57
2022-11-05T04:25:15.859Z,1011.56
2022-11-05T04:25:46.832Z,1011.58
2022-11-05T04:26:17.954Z,1011.58
2022-11-05T04:26:48.443Z,1011.58
2022-11-05T04:27:19.389Z,1011.58
2022-11-05T04:27:50.395Z,1011.59
2022-11-05T04:28:22.549Z,1011.59
2022-11-05T04:28:51.510Z,1011.58
2022-11-05T04:29:22.721Z,1011.59
2022-11-05T04:29:53.216Z,1011.60
2022-11-05T04:30:24.162Z,1011.60
2022-11-05T04:30:55.144Z,1011.59
2022-11-05T04:31:26.116Z,1011.59
2022-11-05T04:31:57.048Z,1011.60
2022-11-05T04:32:28.568Z,1011.62
2022-11-05T04:32:58.630Z,1011.64
2022-11-05T04:33:29.087Z,1011.62
2022-11-05T04:34:00.039Z,1011.62
2022-11-05T04:34:30.994Z,1011.61
2022-11-05T04:35:01.984Z,1011.66
2022-11-05T04:35:32.631Z,1011.65
2022-11-05T04:36:03.370Z,1011.64
2022-11-05T04:36:33.894Z,1011.65
2022-11-05T04:37:04.356Z,1011.66
2022-11-05T04:37:35.325Z,1011.66
2022-11-05T04:38:06.329Z,1011.68
2022-11-05T04:38:37.039Z,1011.66
2022-11-05T04:39:07.552Z,1011.67
2022-11-05T04:39:38.492Z,1011.64
2022-11-05T04:40:09.438Z,1011.64
2022-11-05T04:40:40.416Z,1011.67
2022-11-05T04:41:11.360Z,1011.65
2022-11-05T04:41:42.570Z,1011.64
2022-11-05T04:42:13.085Z,1011.63
2022-11-05T04:42:43.606Z,1011.65
2022-11-05T04:43:15.265Z,1011.64
2022-11-05T04:43:44.713Z,1011.63
2022-11-05T04:44:15.249Z,1011.63
2022-11-05T04:44:46.374Z,1011.61
2022-11-05T04:45:16.893Z,1011.61
2022-11-05T04:45:47.360Z,1011.59
2022-11-05T04:46:18.347Z,1011.60
2022-11-05T04:46:49.366Z,1011.60
2022-11-05T04:47:19.814Z,1011.59
2022-11-05T04:47:51.018Z,1011.59
2022-11-05T04:48:21.538Z,1011.57
2022-11-05T04:48:51.978Z,1011.57
2022-11-05T04:49:22.930Z,1011.57
2022-11-05T04:49:53.969Z,1011.55
2022-11-05T04:50:24.426Z,1011.54
2022-11-05T04:50:55.597Z,1011.54
2022-11-05T04:51:26.115Z,1011.53
2022-11-05T04:51:56.572Z,1011.53
2022-11-05T04:52:27.536Z,1011.52
2022-11-05T04:52:58.489Z,1011.52
2022-11-05T04:53:29.465Z,1011.51
2022-11-05T04:54:00.631Z,1011.51
2022-11-05T04:54:31.145Z,1011.50
2022-11-05T04:55:01.621Z,1011.53
2022-11-05T04:55:32.617Z,1011.53
2022-11-05T04:56:03.178Z,1011.55
2022-11-05T04:56:33.593Z,1011.56
2022-11-05T04:57:04.814Z,1011.56
2022-11-05T04:57:35.331Z,1011.57
2022-11-05T04:58:05.787Z,1011.57
2022-11-05T04:58:36.762Z,1011.60
2022-11-05T04:59:07.784Z,1011.59
2022-11-05T04:59:38.232Z,1011.59
2022-11-05T05:00:09.353Z,1011.58
2022-11-05T05:00:39.969Z,1011.59
2022-11-05T05:01:10.829Z,1011.62
2022-11-05T05:01:41.516Z,1011.60
2022-11-05T05:02:12.148Z,1011.61
2022-11-05T05:02:42.671Z,1011.61
2022-11-05T05:03:14.084Z,1011.60
2022-11-05T05:03:44.397Z,1011.61
2022-11-05T05:04:14.835Z,1011.62
2022-11-05T05:04:45.532Z,1011.62
2022-11-05T05:05:16.556Z,1011.62
2022-11-05T05:05:47.037Z,1011.61
2022-11-05T05:06:18.174Z,1011.63
2022-11-05T05:06:48.698Z,1011.65
2022-11-05T05:07:19.418Z,1011.65
2022-11-05T05:07:49.969Z,1011.64
2022-11-05T05:08:20.431Z,1011.64
2022-11-05T05:08:51.448Z,1011.68
2022-11-05T05:09:22.429Z,1011.66
2022-11-05T05:09:52.922Z,1011.67
2022-11-05T05:10:23.369Z,1011.67
2022-11-05T05:10:54.323Z,1011.68
2022-11-05T05:11:25.262Z,1011.68
2022-11-05T05:11:56.220Z,1011.68
2022-11-05T05:12:27.425Z,1011.67
2022-11-05T05:12:57.938Z,1011.68
2022-11-05T05:13:28.832Z,1011.69
2022-11-05T05:13:59.791Z,1011.69
2022-11-05T05:14:30.730Z,1011.71
2022-11-05T05:15:01.734Z,1011.72
2022-11-05T05:15:32.370Z,1011.72
2022-11-05T05:16:02.871Z,1011.72
2022-11-05T05:16:33.397Z,1011.74
2022-11-05T05:17:03.917Z,1011.75
2022-11-05T05:17:34.841Z,1011.77
2022-11-05T05:18:05.813Z,1011.78
2022-11-05T05:18:39.818Z,1011.76
2022-11-05T05:19:08.409Z,1011.76
2022-11-05T05:19:37.846Z,1011.76
2022-11-05T05:20:08.773Z,1011.74
2022-11-05T05:20:39.766Z,1011.76
2022-11-05T05:21:11.197Z,1011.76
2022-11-05T05:21:41.765Z,1011.76
2022-11-05T05:22:12.235Z,1011.76
2022-11-05T05:22:43.244Z,1011.75
2022-11-05T05:23:13.864Z,1011.78
2022-11-05T05:23:44.628Z,1011.79
2022-11-05T05:24:15.852Z,1011.78
2022-11-05T05:24:52.436Z,1011.80
2022-11-05T05:25:18.357Z,1011.81
2022-11-05T05:25:47.791Z,1011.80
2022-11-05T05:26:18.796Z,1011.82
2022-11-05T05:26:49.444Z,1011.84
2022-11-05T05:27:19.959Z,1011.85
2022-11-05T05:27:50.947Z,1011.84
2022-11-05T05:28:21.890Z,1011.85
2022-11-05T05:28:52.899Z,1011.85
2022-11-05T05:29:23.856Z,1011.86
2022-11-05T05:29:54.999Z,1011.87
2022-11-05T05:30:25.517Z,1011.86
2022-11-05T05:30:58.723Z,1011.89
2022-11-05T05:31:26.574Z,1011.89
2022-11-05T05:31:57.486Z,1011.90
2022-11-05T05:32:28.428Z,1011.92
2022-11-05T05:32:59.571Z,1011.94
2022-11-05T05:33:30.075Z,1011.94
2022-11-05T05:34:00.603Z,1011.93
2022-11-05T05:34:31.130Z,1011.95
2022-11-05T05:35:01.674Z,1011.96
2022-11-05T05:35:32.192Z,1011.97
2022-11-05T05:36:05.834Z,1011.99
2022-11-05T05:36:34.526Z,1011.99
2022-11-05T05:37:04.065Z,1011.98
2022-11-05T05:37:34.997Z,1011.99
2022-11-05T05:38:05.997Z,1012.00
2022-11-05T05:38:37.135Z,1012.01
2022-11-05T05:39:07.636Z,1012.00
2022-11-05T05:39:38.670Z,1012.01
2022-11-05T05:40:09.181Z,1011.99
2022-11-05T05:40:39.618Z,1012.02
2022-11-05T05:41:10.635Z,1012.02
2022-11-05T05:41:41.287Z,1012.03
2022-11-05T05:42:11.808Z,1012.04
2022-11-05T05:42:43.521Z,1012.04
2022-11-05T05:43:13.546Z,1012.05
2022-11-05T05:43:44.103Z,1012.05
2022-11-05T05:44:15.113Z,1012.05
2022-11-05T05:44:46.277Z,1012.07
2022-11-05T05:45:16.801Z,1012.06
2022-11-05T05:45:47.247Z,1012.08
2022-11-05T05:46:18.193Z,1012.08
2022-11-05T05:46:49.662Z,1012.11
2022-11-05T05:47:20.107Z,1012.10
2022-11-05T05:47:51.255Z,1012.11
2022-11-05T05:48:21.754Z,1012.12
2022-11-05T05:48:52.702Z,1012.13
2022-11-05T05:49:23.672Z,1012.16
2022-11-05T05:49:54.695Z,1012.15
2022-11-05T05:50:25.196Z,1012.15
2022-11-05T05:50:56.093Z,1012.17
2022-11-05T05:51:26.611Z,1012.17
2022-11-05T05:51:57.103Z,1012.18
2022-11-05T05:52:28.037Z,1012.20
2022-11-05T05:52:58.978Z,1012.17
2022-11-05T05:53:29.936Z,1012.17
2022-11-05T05:54:01.076Z,1012.18
2022-11-05T05:54:34.202Z,1012.18
2022-11-05T05:55:02.478Z,1012.19
2022-11-05T05:55:33.517Z,1012.18
2022-11-05T05:56:04.003Z,1012.20
2022-11-05T05:56:34.608Z,1012.19
2022-11-05T05:57:05.341Z,1012.18
2022-11-05T05:57:35.885Z,1012.19
2022-11-05T05:58:06.352Z,1012.17
2022-11-05T05:58:37.288Z,1012.19
2022-11-05T05:59:08.254Z,1012.18
2022-11-05T05:59:39.309Z,1012.19
2022-11-05T06:00:10.005Z,1012.19
2022-11-05T06:00:40.446Z,1012.20
2022-11-05T06:01:17.264Z,1012.22
2022-11-05T06:01:42.623Z,1012.22
2022-11-05T06:02:13.413Z,1012.23
2022-11-05T06:02:44.467Z,1012.23
2022-11-05T06:03:15.375Z,1012.25
2022-11-05T06:03:46.119Z,1012.24
2022-11-05T06:04:16.618Z,1012.25
2022-11-05T06:04:47.589Z,1012.25
2022-11-05T06:05:18.635Z,1012.25
2022-11-05T06:05:49.259Z,1012.25
2022-11-05T06:06:19.964Z,1012.27
2022-11-05T06:06:50.449Z,1012.28
2022-11-05T06:07:21.410Z,1012.28
2022-11-05T06:07:52.371Z,1012.29
2022-11-05T06:08:23.361Z,1012.28
2022-11-05T06:08:54.056Z,1012.30
2022-11-05T06:09:24.572Z,1012.32
2022-11-05T06:09:55.105Z,1012.32
2022-11-05T06:10:25.685Z,1012.33
2022-11-05T06:10:56.239Z,1012.34
2022-11-05T06:11:26.711Z,1012.33
2022-11-05T06:11:57.841Z,1012.34
2022-11-05T06:12:28.549Z,1012.37
2022-11-05T06:12:59.003Z,1012.39
2022-11-05T06:13:29.914Z,1012.38